sensor_id;sensor_type;location;lat;lon;timestamp;pressure;altitude;pressure_sealevel;temperature;humidity
38780;BME280;29273;49.962;9.768;2023-03-02T00:02:05;100267.13;;;5.29;48.46
38780;BME280;29273;49.962;9.768;2023-03-02T00:04:42;100264.66;;;5.28;48.24
38780;BME280;29273;49.962;9.768;2023-03-02T00:07:14;100260.56;;;5.25;48.06
38780;BME280;29273;49.962;9.768;2023-03-02T00:09:40;100261.97;;;5.19;47.91
38780;BME280;29273;49.962;9.768;2023-03-02T00:12:07;100261.16;;;5.19;47.76
38780;BME280;29273;49.962;9.768;2023-03-02T00:14:33;100257.88;;;5.17;47.86
38780;BME280;29273;49.962;9.768;2023-03-02T00:16:58;100256.38;;;5.14;47.80
38780;BME280;29273;49.962;9.768;2023-03-02T00:19:24;100253.25;;;5.11;48.08
38780;BME280;29273;49.962;9.768;2023-03-02T00:21:49;100244.84;;;5.07;48.00
38780;BME280;29273;49.962;9.768;2023-03-02T00:24:15;100247.78;;;5.04;47.80
38780;BME280;29273;49.962;9.768;2023-03-02T00:26:40;100242.84;;;5.01;48.00
38780;BME280;29273;49.962;9.768;2023-03-02T00:29:06;100249.38;;;4.97;47.95
38780;BME280;29273;49.962;9.768;2023-03-02T00:31:32;100250.34;;;4.96;47.85
38780;BME280;29273;49.962;9.768;2023-03-02T00:33:58;100250.66;;;4.93;47.83
38780;BME280;29273;49.962;9.768;2023-03-02T00:36:23;100244.91;;;4.89;47.99
38780;BME280;29273;49.962;9.768;2023-03-02T00:38:50;100248.53;;;4.88;48.27
38780;BME280;29273;49.962;9.768;2023-03-02T00:41:19;100240.13;;;4.85;48.19
38780;BME280;29273;49.962;9.768;2023-03-02T00:43:49;100244.69;;;4.82;48.24
38780;BME280;29273;49.962;9.768;2023-03-02T00:46:17;100245.69;;;4.81;48.49
38780;BME280;29273;49.962;9.768;2023-03-02T00:48:43;100240.22;;;4.75;48.29
38780;BME280;29273;49.962;9.768;2023-03-02T00:51:10;100240.53;;;4.72;48.31
38780;BME280;29273;49.962;9.768;2023-03-02T00:53:36;100244.25;;;4.69;48.18
38780;BME280;29273;49.962;9.768;2023-03-02T00:56:03;100242.78;;;4.67;48.32
38780;BME280;29273;49.962;9.768;2023-03-02T00:58:31;100239.66;;;4.63;48.54
38780;BME280;29273;49.962;9.768;2023-03-02T01:00:58;100235.53;;;4.60;48.55
38780;BME280;29273;49.962;9.768;2023-03-02T01:03:25;100238.28;;;4.59;48.25
38780;BME280;29273;49.962;9.768;2023-03-02T01:05:50;100235.97;;;4.56;48.65
38780;BME280;29273;49.962;9.768;2023-03-02T01:08:23;100233.03;;;4.59;48.90
38780;BME280;29273;49.962;9.768;2023-03-02T01:10:49;100233.78;;;4.51;48.60
38780;BME280;29273;49.962;9.768;2023-03-02T01:13:16;100232.16;;;4.50;48.58
38780;BME280;29273;49.962;9.768;2023-03-02T01:15:42;100226.09;;;4.50;48.72
38780;BME280;29273;49.962;9.768;2023-03-02T01:18:07;100219.34;;;4.47;48.66
38780;BME280;29273;49.962;9.768;2023-03-02T01:20:33;100209.00;;;4.45;48.81
38780;BME280;29273;49.962;9.768;2023-03-02T01:22:58;100212.59;;;4.44;48.84
38780;BME280;29273;49.962;9.768;2023-03-02T01:25:24;100218.03;;;4.43;48.78
38780;BME280;29273;49.962;9.768;2023-03-02T01:27:49;100222.41;;;4.42;48.77
38780;BME280;29273;49.962;9.768;2023-03-02T01:30:15;100205.19;;;4.40;48.92
38780;BME280;29273;49.962;9.768;2023-03-02T01:32:42;100206.00;;;4.40;48.98
38780;BME280;29273;49.962;9.768;2023-03-02T01:35:07;100203.69;;;4.37;48.92
38780;BME280;29273;49.962;9.768;2023-03-02T01:37:33;100199.41;;;4.36;48.95
38780;BME280;29273;49.962;9.768;2023-03-02T01:39:58;100190.88;;;4.34;48.92
38780;BME280;29273;49.962;9.768;2023-03-02T01:42:24;100192.84;;;4.32;48.83
38780;BME280;29273;49.962;9.768;2023-03-02T01:44:53;100186.47;;;4.35;49.30
38780;BME280;29273;49.962;9.768;2023-03-02T01:47:29;100184.97;;;4.32;49.46
38780;BME280;29273;49.962;9.768;2023-03-02T01:52:37;100173.59;;;4.23;49.22
38780;BME280;29273;49.962;9.768;2023-03-02T01:55:06;100181.16;;;4.26;49.22
38780;BME280;29273;49.962;9.768;2023-03-02T01:57:35;100176.75;;;4.27;49.40
38780;BME280;29273;49.962;9.768;2023-03-02T02:00:11;100170.84;;;4.25;49.32
38780;BME280;29273;49.962;9.768;2023-03-02T02:02:38;100165.06;;;4.21;49.25
38780;BME280;29273;49.962;9.768;2023-03-02T02:05:09;100163.13;;;4.23;49.21
38780;BME280;29273;49.962;9.768;2023-03-02T02:07:36;100160.94;;;4.19;49.16
38780;BME280;29273;49.962;9.768;2023-03-02T02:10:04;100151.41;;;4.18;49.03
38780;BME280;29273;49.962;9.768;2023-03-02T02:12:29;100153.06;;;4.19;49.33
38780;BME280;29273;49.962;9.768;2023-03-02T02:14:55;100143.88;;;4.15;49.13
38780;BME280;29273;49.962;9.768;2023-03-02T02:17:25;100149.94;;;4.15;49.32
38780;BME280;29273;49.962;9.768;2023-03-02T02:28:33;100142.53;;;4.11;49.68
38780;BME280;29273;49.962;9.768;2023-03-02T02:31:31;100144.31;;;4.10;49.77
38780;BME280;29273;49.962;9.768;2023-03-02T02:34:03;100144.47;;;4.08;49.63
38780;BME280;29273;49.962;9.768;2023-03-02T02:36:34;100148.72;;;4.10;49.67
38780;BME280;29273;49.962;9.768;2023-03-02T02:39:07;100143.66;;;4.08;49.45
38780;BME280;29273;49.962;9.768;2023-03-02T02:41:38;100150.53;;;4.09;49.36
38780;BME280;29273;49.962;9.768;2023-03-02T02:44:08;100139.53;;;4.05;49.34
38780;BME280;29273;49.962;9.768;2023-03-02T02:46:33;100143.97;;;4.05;49.06
38780;BME280;29273;49.962;9.768;2023-03-02T02:49:01;100145.59;;;4.06;49.31
38780;BME280;29273;49.962;9.768;2023-03-02T02:51:27;100144.09;;;4.03;49.11
38780;BME280;29273;49.962;9.768;2023-03-02T02:53:57;100143.97;;;4.05;49.49
38780;BME280;29273;49.962;9.768;2023-03-02T02:56:36;100143.25;;;4.03;49.59
38780;BME280;29273;49.962;9.768;2023-03-02T02:59:20;100142.44;;;4.02;49.64
38780;BME280;29273;49.962;9.768;2023-03-02T03:01:48;100141.94;;;3.99;49.35
38780;BME280;29273;49.962;9.768;2023-03-02T03:04:20;100135.72;;;4.00;49.59
38780;BME280;29273;49.962;9.768;2023-03-02T03:07:03;100135.88;;;3.98;49.44
38780;BME280;29273;49.962;9.768;2023-03-02T03:09:29;100144.19;;;3.94;49.18
38780;BME280;29273;49.962;9.768;2023-03-02T03:12:16;100142.53;;;3.93;49.96
38780;BME280;29273;49.962;9.768;2023-03-02T03:14:45;100141.03;;;3.90;49.28
38780;BME280;29273;49.962;9.768;2023-03-02T03:17:12;100135.09;;;3.88;49.29
38780;BME280;29273;49.962;9.768;2023-03-02T03:19:45;100134.28;;;3.87;49.32
38780;BME280;29273;49.962;9.768;2023-03-02T03:22:13;100139.69;;;3.86;49.49
38780;BME280;29273;49.962;9.768;2023-03-02T03:24:41;100139.69;;;3.86;49.47
38780;BME280;29273;49.962;9.768;2023-03-02T03:27:08;100135.44;;;3.85;49.47
38780;BME280;29273;49.962;9.768;2023-03-02T03:29:39;100132.13;;;3.83;49.42
38780;BME280;29273;49.962;9.768;2023-03-02T03:32:07;100129.81;;;3.80;49.39
38780;BME280;29273;49.962;9.768;2023-03-02T03:34:34;100124.72;;;3.78;49.29
38780;BME280;29273;49.962;9.768;2023-03-02T03:37:10;100129.97;;;3.78;49.87
38780;BME280;29273;49.962;9.768;2023-03-02T03:39:36;100129.75;;;3.72;49.58
38780;BME280;29273;49.962;9.768;2023-03-02T03:42:03;100128.09;;;3.70;49.52
38780;BME280;29273;49.962;9.768;2023-03-02T03:44:29;100126.75;;;3.66;49.58
38780;BME280;29273;49.962;9.768;2023-03-02T03:46:55;100129.19;;;3.68;49.55
38780;BME280;29273;49.962;9.768;2023-03-02T03:49:21;100131.81;;;3.68;49.77
38780;BME280;29273;49.962;9.768;2023-03-02T03:51:46;100135.28;;;3.68;49.79
38780;BME280;29273;49.962;9.768;2023-03-02T03:54:12;100127.28;;;3.70;49.79
38780;BME280;29273;49.962;9.768;2023-03-02T03:56:43;100125.16;;;3.74;50.27
38780;BME280;29273;49.962;9.768;2023-03-02T03:59:13;100129.59;;;3.73;50.03
38780;BME280;29273;49.962;9.768;2023-03-02T04:01:47;100127.63;;;3.75;50.03
38780;BME280;29273;49.962;9.768;2023-03-02T04:04:17;100124.19;;;3.75;50.15
38780;BME280;29273;49.962;9.768;2023-03-02T04:06:43;100126.13;;;3.73;49.96
38780;BME280;29273;49.962;9.768;2023-03-02T04:09:09;100126.13;;;3.73;49.72
38780;BME280;29273;49.962;9.768;2023-03-02T04:11:39;100126.81;;;3.75;49.92
38780;BME280;29273;49.962;9.768;2023-03-02T04:14:06;100132.22;;;3.73;49.82
38780;BME280;29273;49.962;9.768;2023-03-02T04:16:32;100129.75;;;3.72;49.63
38780;BME280;29273;49.962;9.768;2023-03-02T04:18:58;100134.13;;;3.71;49.75
38780;BME280;29273;49.962;9.768;2023-03-02T04:21:25;100130.84;;;3.69;49.71
38780;BME280;29273;49.962;9.768;2023-03-02T04:23:51;100125.91;;;3.66;49.66
38780;BME280;29273;49.962;9.768;2023-03-02T04:26:17;100127.84;;;3.64;49.78
38780;BME280;29273;49.962;9.768;2023-03-02T04:28:43;100130.63;;;3.62;49.99
38780;BME280;29273;49.962;9.768;2023-03-02T04:31:09;100130.91;;;3.59;49.87
38780;BME280;29273;49.962;9.768;2023-03-02T04:33:35;100130.09;;;3.59;50.03
38780;BME280;29273;49.962;9.768;2023-03-02T04:36:01;100114.69;;;3.56;50.12
38780;BME280;29273;49.962;9.768;2023-03-02T04:38:27;100125.97;;;3.56;50.11
38780;BME280;29273;49.962;9.768;2023-03-02T04:40:57;100129.28;;;3.58;50.24
38780;BME280;29273;49.962;9.768;2023-03-02T04:43:23;100129.72;;;3.54;49.98
38780;BME280;29273;49.962;9.768;2023-03-02T04:45:50;100133.97;;;3.55;50.19
38780;BME280;29273;49.962;9.768;2023-03-02T04:48:16;100127.25;;;3.52;50.24
38780;BME280;29273;49.962;9.768;2023-03-02T04:50:42;100129.88;;;3.52;50.03
38780;BME280;29273;49.962;9.768;2023-03-02T04:53:07;100125.72;;;3.49;50.25
38780;BME280;29273;49.962;9.768;2023-03-02T04:55:33;100130.97;;;3.49;50.08
38780;BME280;29273;49.962;9.768;2023-03-02T04:57:59;100132.09;;;3.47;49.90
38780;BME280;29273;49.962;9.768;2023-03-02T05:00:24;100133.06;;;3.46;50.20
38780;BME280;29273;49.962;9.768;2023-03-02T05:02:50;100134.19;;;3.43;50.23
38780;BME280;29273;49.962;9.768;2023-03-02T05:05:20;100136.69;;;3.45;50.41
38780;BME280;29273;49.962;9.768;2023-03-02T05:07:46;100133.50;;;3.41;50.33
38780;BME280;29273;49.962;9.768;2023-03-02T05:10:13;100132.69;;;3.41;50.45
38780;BME280;29273;49.962;9.768;2023-03-02T05:12:39;100131.88;;;3.40;50.32
38780;BME280;29273;49.962;9.768;2023-03-02T05:15:37;100128.25;;;3.41;50.49
38780;BME280;29273;49.962;9.768;2023-03-02T05:18:05;100129.41;;;3.39;50.43
38780;BME280;29273;49.962;9.768;2023-03-02T05:20:31;100126.25;;;3.35;50.48
38780;BME280;29273;49.962;9.768;2023-03-02T05:23:04;100132.97;;;3.38;50.41
38780;BME280;29273;49.962;9.768;2023-03-02T05:25:33;100128.72;;;3.37;50.45
38780;BME280;29273;49.962;9.768;2023-03-02T05:28:00;100133.25;;;3.34;50.45
38780;BME280;29273;49.962;9.768;2023-03-02T05:30:25;100132.44;;;3.34;50.34
38780;BME280;29273;49.962;9.768;2023-03-02T05:32:52;100130.78;;;3.33;50.50
38780;BME280;29273;49.962;9.768;2023-03-02T05:35:19;100132.59;;;3.32;50.50
38780;BME280;29273;49.962;9.768;2023-03-02T05:37:44;100129.31;;;3.30;50.34
38780;BME280;29273;49.962;9.768;2023-03-02T05:40:12;100125.72;;;3.31;50.51
38780;BME280;29273;49.962;9.768;2023-03-02T05:42:39;100132.06;;;3.29;50.57
38780;BME280;29273;49.962;9.768;2023-03-02T05:45:06;100130.25;;;3.29;50.37
38780;BME280;29273;49.962;9.768;2023-03-02T05:47:32;100131.53;;;3.25;50.47
38780;BME280;29273;49.962;9.768;2023-03-02T05:49:57;100133.34;;;3.25;50.65
38780;BME280;29273;49.962;9.768;2023-03-02T05:52:24;100136.78;;;3.25;50.47
38780;BME280;29273;49.962;9.768;2023-03-02T05:54:49;100135.13;;;3.24;50.81
38780;BME280;29273;49.962;9.768;2023-03-02T05:57:15;100145.59;;;3.24;50.86
38780;BME280;29273;49.962;9.768;2023-03-02T05:59:41;100139.53;;;3.24;50.73
38780;BME280;29273;49.962;9.768;2023-03-02T06:02:06;100150.00;;;3.24;50.96
38780;BME280;29273;49.962;9.768;2023-03-02T06:04:32;100148.34;;;3.23;51.17
38780;BME280;29273;49.962;9.768;2023-03-02T06:06:57;100149.19;;;3.23;51.07
38780;BME280;29273;49.962;9.768;2023-03-02T06:09:23;100150.00;;;3.24;51.24
38780;BME280;29273;49.962;9.768;2023-03-02T06:11:48;100150.97;;;3.23;51.32
38780;BME280;29273;49.962;9.768;2023-03-02T06:14:13;100148.19;;;3.24;51.15
38780;BME280;29273;49.962;9.768;2023-03-02T06:16:39;100144.78;;;3.24;51.12
38780;BME280;29273;49.962;9.768;2023-03-02T06:19:05;100150.69;;;3.26;51.30
38780;BME280;29273;49.962;9.768;2023-03-02T06:21:31;100149.72;;;3.27;51.30
38780;BME280;29273;49.962;9.768;2023-03-02T06:23:56;100153.16;;;3.27;51.22
38780;BME280;29273;49.962;9.768;2023-03-02T06:26:21;100149.72;;;3.27;51.04
38780;BME280;29273;49.962;9.768;2023-03-02T06:28:47;100148.88;;;3.26;51.10
38780;BME280;29273;49.962;9.768;2023-03-02T06:31:12;100150.69;;;3.26;51.34
38780;BME280;29273;49.962;9.768;2023-03-02T06:33:38;100152.34;;;3.27;51.34
38780;BME280;29273;49.962;9.768;2023-03-02T06:36:04;100151.34;;;3.28;51.21
38780;BME280;29273;49.962;9.768;2023-03-02T06:38:29;100159.06;;;3.29;51.67
38780;BME280;29273;49.962;9.768;2023-03-02T06:40:54;100154.66;;;3.30;51.57
38780;BME280;29273;49.962;9.768;2023-03-02T06:43:20;100157.97;;;3.32;51.42
38780;BME280;29273;49.962;9.768;2023-03-02T06:45:45;100158.78;;;3.32;51.56
38780;BME280;29273;49.962;9.768;2023-03-02T06:48:11;100151.72;;;3.33;51.17
38780;BME280;29273;49.962;9.768;2023-03-02T06:50:36;100161.25;;;3.34;51.53
38780;BME280;29273;49.962;9.768;2023-03-02T06:53:03;100155.06;;;3.35;51.79
38780;BME280;29273;49.962;9.768;2023-03-02T06:55:28;100147.06;;;3.37;51.91
38780;BME280;29273;49.962;9.768;2023-03-02T06:57:54;100149.53;;;3.38;52.01
38780;BME280;29273;49.962;9.768;2023-03-02T07:00:20;100155.28;;;3.42;52.07
38780;BME280;29273;49.962;9.768;2023-03-02T07:02:50;100149.75;;;3.45;52.37
38780;BME280;29273;49.962;9.768;2023-03-02T07:05:16;100160.75;;;3.48;52.40
38780;BME280;29273;49.962;9.768;2023-03-02T07:07:41;100155.38;;;3.50;52.47
38780;BME280;29273;49.962;9.768;2023-03-02T07:10:08;100155.09;;;3.53;52.55
38780;BME280;29273;49.962;9.768;2023-03-02T07:12:35;100151.34;;;3.56;52.49
38780;BME280;29273;49.962;9.768;2023-03-02T07:15:00;100154.63;;;3.58;52.56
38780;BME280;29273;49.962;9.768;2023-03-02T07:17:26;100157.78;;;3.61;52.98
38780;BME280;29273;49.962;9.768;2023-03-02T07:19:51;100162.06;;;3.62;52.99
38780;BME280;29273;49.962;9.768;2023-03-02T07:22:17;100158.31;;;3.65;53.01
38780;BME280;29273;49.962;9.768;2023-03-02T07:24:42;100152.09;;;3.66;53.05
38780;BME280;29273;49.962;9.768;2023-03-02T07:27:08;100146.41;;;3.70;53.37
38780;BME280;29273;49.962;9.768;2023-03-02T07:29:33;100151.22;;;3.75;53.32
38780;BME280;29273;49.962;9.768;2023-03-02T07:31:58;100148.97;;;3.80;53.53
38780;BME280;29273;49.962;9.768;2023-03-02T07:34:25;100143.97;;;3.87;53.67
38780;BME280;29273;49.962;9.768;2023-03-02T07:36:51;100148.47;;;3.95;53.78
38780;BME280;29273;49.962;9.768;2023-03-02T07:39:17;100142.44;;;4.02;53.71
38780;BME280;29273;49.962;9.768;2023-03-02T07:41:42;100135.63;;;4.10;53.80
38780;BME280;29273;49.962;9.768;2023-03-02T07:44:08;100134.88;;;4.17;53.39
38780;BME280;29273;49.962;9.768;2023-03-02T07:46:33;100136.59;;;4.26;53.59
38780;BME280;29273;49.962;9.768;2023-03-02T07:48:59;100128.94;;;4.33;53.62
38780;BME280;29273;49.962;9.768;2023-03-02T07:51:24;100127.19;;;4.42;53.39
38780;BME280;29273;49.962;9.768;2023-03-02T07:53:50;100123.81;;;4.50;53.81
38780;BME280;29273;49.962;9.768;2023-03-02T07:56:15;100131.56;;;4.59;53.39
38780;BME280;29273;49.962;9.768;2023-03-02T07:58:41;100121.94;;;4.68;53.13
38780;BME280;29273;49.962;9.768;2023-03-02T08:01:07;100125.28;;;4.78;53.17
38780;BME280;29273;49.962;9.768;2023-03-02T08:03:34;100128.75;;;4.87;52.71
38780;BME280;29273;49.962;9.768;2023-03-02T08:06:08;100120.47;;;5.00;53.42
38780;BME280;29273;49.962;9.768;2023-03-02T08:08:35;100122.78;;;5.03;52.42
38780;BME280;29273;49.962;9.768;2023-03-02T08:11:09;100119.69;;;5.16;52.91
38780;BME280;29273;49.962;9.768;2023-03-02T08:13:35;100113.00;;;5.22;52.15
38780;BME280;29273;49.962;9.768;2023-03-02T08:16:02;100106.78;;;5.31;52.05
38780;BME280;29273;49.962;9.768;2023-03-02T08:18:28;100114.03;;;5.37;52.29
38780;BME280;29273;49.962;9.768;2023-03-02T08:20:53;100109.59;;;5.46;52.27
38780;BME280;29273;49.962;9.768;2023-03-02T08:23:19;100111.44;;;5.53;52.22
38780;BME280;29273;49.962;9.768;2023-03-02T08:25:45;100114.09;;;5.62;52.22
38780;BME280;29273;49.962;9.768;2023-03-02T08:28:10;100109.97;;;5.67;51.72
38780;BME280;29273;49.962;9.768;2023-03-02T08:30:36;100102.25;;;5.74;51.88
38780;BME280;29273;49.962;9.768;2023-03-02T08:33:02;100101.47;;;5.82;52.01
38780;BME280;29273;49.962;9.768;2023-03-02T08:35:27;100102.59;;;5.87;51.75
38780;BME280;29273;49.962;9.768;2023-03-02T08:37:53;100107.06;;;5.95;51.54
38780;BME280;29273;49.962;9.768;2023-03-02T08:40:18;100107.25;;;6.02;51.59
38780;BME280;29273;49.962;9.768;2023-03-02T08:42:44;100101.16;;;6.09;51.84
38780;BME280;29273;49.962;9.768;2023-03-02T08:45:09;100097.88;;;6.16;51.58
38780;BME280;29273;49.962;9.768;2023-03-02T08:47:35;100098.19;;;6.21;51.45
38780;BME280;29273;49.962;9.768;2023-03-02T08:50:00;100096.56;;;6.28;51.17
38780;BME280;29273;49.962;9.768;2023-03-02T08:52:26;100092.44;;;6.34;51.30
38780;BME280;29273;49.962;9.768;2023-03-02T08:54:51;100082.88;;;6.41;51.26
38780;BME280;29273;49.962;9.768;2023-03-02T08:57:17;100083.00;;;6.47;51.43
38780;BME280;29273;49.962;9.768;2023-03-02T08:59:42;100082.53;;;6.52;51.09
38780;BME280;29273;49.962;9.768;2023-03-02T09:02:10;100085.94;;;6.61;51.16
38780;BME280;29273;49.962;9.768;2023-03-02T09:04:36;100082.81;;;6.65;50.64
38780;BME280;29273;49.962;9.768;2023-03-02T09:07:02;100083.75;;;6.73;50.86
38780;BME280;29273;49.962;9.768;2023-03-02T09:09:28;100086.06;;;6.76;50.55
38780;BME280;29273;49.962;9.768;2023-03-02T09:11:53;100080.13;;;6.82;50.48
38780;BME280;29273;49.962;9.768;2023-03-02T09:14:19;100077.81;;;6.87;50.58
38780;BME280;29273;49.962;9.768;2023-03-02T09:16:44;100074.31;;;6.95;51.61
38780;BME280;29273;49.962;9.768;2023-03-02T09:19:12;100083.97;;;7.02;51.04
38780;BME280;29273;49.962;9.768;2023-03-02T09:21:38;100077.56;;;7.05;50.61
38780;BME280;29273;49.962;9.768;2023-03-02T09:24:03;100078.69;;;7.11;49.87
38780;BME280;29273;49.962;9.768;2023-03-02T09:26:29;100081.63;;;7.16;50.37
38780;BME280;29273;49.962;9.768;2023-03-02T09:28:55;100080.75;;;7.23;50.53
38780;BME280;29273;49.962;9.768;2023-03-02T09:31:21;100080.25;;;7.28;50.35
38780;BME280;29273;49.962;9.768;2023-03-02T09:33:47;100084.00;;;7.34;49.88
38780;BME280;29273;49.962;9.768;2023-03-02T09:36:18;100087.22;;;7.44;51.10
38780;BME280;29273;49.962;9.768;2023-03-02T09:38:44;100085.44;;;7.45;49.88
38780;BME280;29273;49.962;9.768;2023-03-02T09:44:12;100091.59;;;7.60;52.01
38780;BME280;29273;49.962;9.768;2023-03-02T09:46:53;100086.25;;;7.68;51.77
38780;BME280;29273;49.962;9.768;2023-03-02T09:52:09;100091.94;;;7.80;52.65
38780;BME280;29273;49.962;9.768;2023-03-02T09:54:40;100084.84;;;7.81;50.29
38780;BME280;29273;49.962;9.768;2023-03-02T09:57:27;100083.97;;;7.88;52.29
38780;BME280;29273;49.962;9.768;2023-03-02T10:00:17;100081.59;;;7.93;51.92
38780;BME280;29273;49.962;9.768;2023-03-02T10:02:53;100079.72;;;8.02;51.98
38780;BME280;29273;49.962;9.768;2023-03-02T10:05:24;100075.75;;;8.06;51.23
38780;BME280;29273;49.962;9.768;2023-03-02T10:07:52;100071.91;;;8.09;50.42
38780;BME280;29273;49.962;9.768;2023-03-02T10:10:28;100075.09;;;8.19;51.55
38780;BME280;29273;49.962;9.768;2023-03-02T10:19:05;100066.59;;;8.32;51.83
38780;BME280;29273;49.962;9.768;2023-03-02T10:21:43;100066.69;;;8.39;51.96
38780;BME280;29273;49.962;9.768;2023-03-02T10:24:36;100068.34;;;8.40;52.31
38780;BME280;29273;49.962;9.768;2023-03-02T10:27:17;100067.25;;;8.49;52.02
38780;BME280;29273;49.962;9.768;2023-03-02T10:32:28;100055.44;;;8.60;50.82
38780;BME280;29273;49.962;9.768;2023-03-02T10:34:55;100058.09;;;8.60;49.61
38780;BME280;29273;49.962;9.768;2023-03-02T10:37:28;100057.41;;;8.73;51.20
38780;BME280;29273;49.962;9.768;2023-03-02T10:39:54;100056.59;;;8.72;49.48
38780;BME280;29273;49.962;9.768;2023-03-02T10:42:27;100055.34;;;8.83;51.30
38780;BME280;29273;49.962;9.768;2023-03-02T10:45:05;100054.59;;;8.89;51.50
38780;BME280;29273;49.962;9.768;2023-03-02T10:47:32;100054.59;;;8.89;49.66
38780;BME280;29273;49.962;9.768;2023-03-02T10:49:58;100050.59;;;8.93;49.50
38780;BME280;29273;49.962;9.768;2023-03-02T10:52:26;100041.94;;;8.99;49.67
38780;BME280;29273;49.962;9.768;2023-03-02T10:55:08;100043.44;;;9.08;51.01
38780;BME280;29273;49.962;9.768;2023-03-02T10:57:42;100045.53;;;9.13;50.34
38780;BME280;29273;49.962;9.768;2023-03-02T11:00:20;100045.78;;;9.18;50.41
38780;BME280;29273;49.962;9.768;2023-03-02T11:02:51;100042.41;;;9.24;50.47
38780;BME280;29273;49.962;9.768;2023-03-02T11:05:36;100031.47;;;9.28;50.78
38780;BME280;29273;49.962;9.768;2023-03-02T11:08:05;100028.25;;;9.32;49.37
38780;BME280;29273;49.962;9.768;2023-03-02T11:11:17;100035.00;;;9.35;48.56
38780;BME280;29273;49.962;9.768;2023-03-02T11:13:33;100031.84;;;9.46;51.00
38780;BME280;29273;49.962;9.768;2023-03-02T11:16:01;100028.81;;;9.49;49.48
38780;BME280;29273;49.962;9.768;2023-03-02T11:21:09;100022.47;;;9.65;50.59
38780;BME280;29273;49.962;9.768;2023-03-02T11:23:56;100026.56;;;9.68;51.22
38780;BME280;29273;49.962;9.768;2023-03-02T11:26:37;100023.13;;;9.74;51.26
38780;BME280;29273;49.962;9.768;2023-03-02T11:29:19;100019.72;;;9.80;50.99
38780;BME280;29273;49.962;9.768;2023-03-02T11:31:51;100018.31;;;9.84;50.06
38780;BME280;29273;49.962;9.768;2023-03-02T11:37:35;100013.94;;;9.91;51.04
38780;BME280;29273;49.962;9.768;2023-03-02T11:40:25;100003.00;;;10.01;49.94
38780;BME280;29273;49.962;9.768;2023-03-02T11:42:55;100005.25;;;10.04;49.08
38780;BME280;29273;49.962;9.768;2023-03-02T11:45:24;100003.47;;;10.11;49.14
38780;BME280;29273;49.962;9.768;2023-03-02T11:51:04;99997.47;;;10.24;51.03
38780;BME280;29273;49.962;9.768;2023-03-02T11:53:32;99994.81;;;10.24;48.29
38780;BME280;29273;49.962;9.768;2023-03-02T11:56:03;99995.03;;;10.29;48.20
38780;BME280;29273;49.962;9.768;2023-03-02T11:58:29;99992.47;;;10.36;48.26
38780;BME280;29273;49.962;9.768;2023-03-02T12:00:55;99986.75;;;10.39;47.30
38780;BME280;29273;49.962;9.768;2023-03-02T12:03:35;99984.59;;;10.49;49.24
38780;BME280;29273;49.962;9.768;2023-03-02T12:06:04;99979.31;;;10.56;49.49
38780;BME280;29273;49.962;9.768;2023-03-02T12:08:38;99976.91;;;10.61;49.67
38780;BME280;29273;49.962;9.768;2023-03-02T12:11:29;99978.72;;;10.61;49.11
38780;BME280;29273;49.962;9.768;2023-03-02T12:14:01;99967.13;;;10.68;48.32
38780;BME280;29273;49.962;9.768;2023-03-02T12:21:42;99961.19;;;10.60;50.02
38780;BME280;29273;49.962;9.768;2023-03-02T12:24:26;99962.09;;;10.87;49.40
38780;BME280;29273;49.962;9.768;2023-03-02T12:29:50;99958.66;;;11.00;49.23
38780;BME280;29273;49.962;9.768;2023-03-02T12:35:00;99952.78;;;11.11;49.42
38780;BME280;29273;49.962;9.768;2023-03-02T12:37:30;99953.00;;;11.16;48.56
38780;BME280;29273;49.962;9.768;2023-03-02T12:41:04;99944.00;;;11.24;48.63
38780;BME280;29273;49.962;9.768;2023-03-02T12:45:53;99936.28;;;11.36;49.28
38780;BME280;29273;49.962;9.768;2023-03-02T12:48:30;99931.41;;;11.39;49.11
38780;BME280;29273;49.962;9.768;2023-03-02T12:51:02;99925.06;;;11.47;49.12
38780;BME280;29273;49.962;9.768;2023-03-02T12:53:28;99924.25;;;11.46;46.37
38780;BME280;29273;49.962;9.768;2023-03-02T12:55:54;99931.19;;;11.54;46.62
38780;BME280;29273;49.962;9.768;2023-03-02T12:58:24;99915.69;;;11.58;46.58
38780;BME280;29273;49.962;9.768;2023-03-02T13:00:59;99919.34;;;11.70;49.47
38780;BME280;29273;49.962;9.768;2023-03-02T13:03:28;99918.31;;;11.71;46.24
38780;BME280;29273;49.962;9.768;2023-03-02T13:06:11;99907.69;;;11.78;51.41
38780;BME280;29273;49.962;9.768;2023-03-02T13:08:38;99898.28;;;11.82;46.55
38780;BME280;29273;49.962;9.768;2023-03-02T13:11:04;99900.31;;;11.87;45.95
38780;BME280;29273;49.962;9.768;2023-03-02T13:13:36;99903.19;;;11.98;49.35
38780;BME280;29273;49.962;9.768;2023-03-02T13:16:05;99889.50;;;12.01;47.73
38780;BME280;29273;49.962;9.768;2023-03-02T13:18:35;99887.63;;;12.09;48.05
38780;BME280;29273;49.962;9.768;2023-03-02T13:21:04;99884.16;;;12.08;46.78
38780;BME280;29273;49.962;9.768;2023-03-02T13:23:31;99878.84;;;12.15;46.82
38780;BME280;29273;49.962;9.768;2023-03-02T13:26:02;99884.34;;;12.20;46.29
38780;BME280;29273;49.962;9.768;2023-03-02T13:28:31;99877.97;;;12.28;47.18
38780;BME280;29273;49.962;9.768;2023-03-02T13:31:19;99877.56;;;12.31;50.14
38780;BME280;29273;49.962;9.768;2023-03-02T13:33:47;99877.75;;;12.36;46.84
38780;BME280;29273;49.962;9.768;2023-03-02T13:36:32;99881.97;;;12.44;48.91
38780;BME280;29273;49.962;9.768;2023-03-02T13:38:59;99881.38;;;12.42;46.27
38780;BME280;29273;49.962;9.768;2023-03-02T13:41:33;99879.91;;;12.52;48.84
38780;BME280;29273;49.962;9.768;2023-03-02T13:44:11;99880.28;;;12.56;49.41
38780;BME280;29273;49.962;9.768;2023-03-02T13:46:40;99875.63;;;12.51;45.61
38780;BME280;29273;49.962;9.768;2023-03-02T13:49:06;99876.81;;;12.55;45.48
38780;BME280;29273;49.962;9.768;2023-03-02T13:51:41;99872.06;;;12.64;47.68
38780;BME280;29273;49.962;9.768;2023-03-02T13:54:18;99874.28;;;12.67;47.82
38780;BME280;29273;49.962;9.768;2023-03-02T13:56:45;99878.19;;;12.65;44.74
38780;BME280;29273;49.962;9.768;2023-03-02T13:59:15;99877.13;;;12.72;47.23